Aripeka, Florida
Current Conditions -  °F | °C
As of 7:53 PM on Sunday 23 Nov 2014 (Local Time) from KBKV Reporting Station
Clear Clear  
Wind Chill: 75°   Ceiling: Unl
Heat Index: 75°   Visibility: 10mi
Dew Point: 71°   Wind: 8mph
Humidity: 87%   Direction: 190°S
Pressure: 29.93"   Gusts: NA
Location:  28.43°N, 82.66°W
Report Text: KBKV 240053Z AUTO 19007KT 10SM CLR 24/22 A2993 RMK AO2 SLP133 T02390217
Loading
Personal Weather Stations






























Interactive Weather Map New forecast layout! Learn more

10-Day Weather Forecast

Advertisements
Track Severe Weather on mobile